Enid, OK (73701)

7:25 PM CST on February 20, 2018 (GMT -0600)
Hwy 412/81 | | Change Station
Active Advisory: Winter Weather Advisory

Elev 1243 ft 36.39 °N, 97.89 °W | Updated 33 seconds ago

Partly Cloudy
Partly Cloudy
25.4 °F
Feels Like 25 °F
N
2.0
Wind Variable Wind from SSW

Today
High -- | Low -- °F
--% Chance of Precip.
Yesterday
High -- | Low -- °F
Precip. -- in
Pressure 30.20 in
Visibility 10.0 miles
Clouds Mostly Cloudy 1600 ft
Mostly Cloudy 13000 ft
Windchill 25 °F
Dew Point 22 °F
Humidity 90%
Rainfall 0.00 in
Snow Depth Not available.
7:13 AM 6:17 PM
Waxing Crescent, 26% visible
METAR KWDG 210047Z 36010G16KT 10SM BKN016 BKN130 M03/M04 A3020
Pressure 30.20 in
Visibility 10.0 miles
Clouds Mostly Cloudy 1600 ft
Mostly Cloudy 13000 ft
Windchill 25 °F
Dew Point 22 °F
Humidity 90%
Rainfall 0.00 in
Snow Depth Not available.
7:13 AM 6:17 PM
Waxing Crescent, 26% visible
METAR KWDG 210047Z 36010G16KT 10SM BKN016 BKN130 M03/M04 A3020

Get Your Daily Forecast Email!

Thanks for signing up!

Be on the lookout for a verification email in your inbox.

You'll start receiving severe weather alerts in your inbox..

×

10-Day Weather Forecast

Almanac

Astronomy

Feb. 20, 2018 Rise Set
Actual Time
Civil Twilight
Nautical Twilight
Astronomical Twilight
Moon
Length of Visible Light
Length of Day
Tomorrow will be .
, % of the Moon is Illuminated

Today's Extremes

State Highs State Lows

Community

WunderPhotos

Category 6

Welcome to Category 6. This is the collective home for Weather Underground's featured writeups by Dr. Jeff Masters (right), Bob Henson (left), Chris Burt, and other regular contributors.

Nearby

Air Quality

  Air Quality AQ Index Pollutant
Not available.

Snow Depth

Station Depth Elevation

Earthquake Activity

City Distance Mag. Time & Date
Minimum magnitude displayed is 2.5.

Coastal Water Temperatures

Place Temperature

Stations

Nearby Weather Stations

Station Location Temp. Windchill Dew Point Humidity Wind Precip. Elev Updated Type
                   

Watches & Warnings

Winter Weather Advisory
Issued: 4:59 PM CST Feb. 20, 2018 – National Weather Service

... Winter Weather Advisory remains in effect from 6 am Wednesday
to midnight CST Wednesday night...

* what... freezing rain is expected to develop during the day on
Wednesday with additional ice accumulations expected.

* Where... portions of northern, central and southern Oklahoma.

* When... Wednesday afternoon and evening.


Precautionary/preparedness actions...

A Winter Weather Advisory means that periods of freezing rain
will cause travel difficulties. Be prepared for slippery roads.
Slow down and use caution while driving. The latest Road
conditions for the state you are calling from can be obtained by
calling 5 1 1.